createdAt,value
2023-02-13T00:00:24.068Z,78783.91
2023-02-13T00:02:51.137Z,78776.19
2023-02-13T00:05:18.813Z,78774.28
2023-02-13T00:07:46.197Z,78764.63
2023-02-13T00:10:13.558Z,78764.63
2023-02-13T00:12:40.683Z,78760.78
2023-02-13T00:15:08.456Z,78760.78
2023-02-13T00:17:35.082Z,78756.91
2023-02-13T00:20:01.709Z,78762.72
2023-02-13T00:22:28.386Z,78764.63
2023-02-13T00:24:55.052Z,78760.78
2023-02-13T00:27:21.652Z,78764.63
2023-02-13T00:29:48.346Z,78764.63
2023-02-13T00:32:15.118Z,78776.19
2023-02-13T00:34:44.014Z,78785.84
2023-02-13T00:37:11.324Z,78801.28
2023-02-13T00:39:38.104Z,78814.78
2023-02-13T00:42:05.491Z,78826.34
2023-02-13T00:44:32.149Z,78834.06
2023-02-13T00:46:58.810Z,78830.19
2023-02-13T00:49:25.606Z,78828.28
2023-02-13T00:51:52.168Z,78828.28
2023-02-13T00:54:19.623Z,78847.56
2023-02-13T00:56:46.232Z,78847.56
2023-02-13T00:59:13.134Z,78853.34
2023-02-13T01:01:39.869Z,78853.34
2023-02-13T01:04:06.556Z,78851.41
2023-02-13T01:06:33.126Z,78853.34
2023-02-13T01:08:59.914Z,78849.47
2023-02-13T01:11:26.493Z,78849.47
2023-02-13T01:13:53.175Z,78853.34
2023-02-13T01:16:20.461Z,78859.13
2023-02-13T01:18:47.078Z,78857.19
2023-02-13T01:21:21.003Z,78876.47
2023-02-13T01:23:47.939Z,78888.03
2023-02-13T01:26:23.379Z,78895.75
2023-02-13T01:28:55.034Z,78891.91
2023-02-13T01:31:22.153Z,78888.03
2023-02-13T01:33:50.512Z,78889.97
2023-02-13T01:36:21.043Z,78891.91
2023-02-13T01:38:47.704Z,78891.91
2023-02-13T01:41:15.565Z,78886.13
2023-02-13T01:44:02.581Z,78884.19
2023-02-13T01:46:35.103Z,78880.34
2023-02-13T01:49:18.669Z,78876.47
2023-02-13T01:51:47.111Z,78882.25
2023-02-13T01:54:21.566Z,78874.53
2023-02-13T01:56:52.070Z,78872.63
2023-02-13T01:59:25.330Z,78872.63
2023-02-13T02:01:52.700Z,78868.75
2023-02-13T02:04:25.937Z,78862.97
2023-02-13T02:06:57.584Z,78861.06
2023-02-13T02:09:32.192Z,78870.69
2023-02-13T02:12:26.913Z,78876.47
2023-02-13T02:14:55.995Z,78880.34
2023-02-13T02:17:25.478Z,78895.75
2023-02-13T02:20:16.785Z,78884.19
2023-02-13T02:23:16.937Z,78884.19
2023-02-13T02:26:09.174Z,78915.03
2023-02-13T02:28:54.566Z,78922.75
2023-02-13T02:31:27.212Z,78924.69
2023-02-13T02:34:12.578Z,78913.13
2023-02-13T02:37:08.630Z,78909.25
2023-02-13T02:40:01.999Z,78911.19
2023-02-13T02:42:57.863Z,78899.63
2023-02-13T02:45:39.810Z,78893.84
2023-02-13T02:48:39.529Z,78893.84
2023-02-13T02:51:25.291Z,78909.25
2023-02-13T02:54:45.535Z,78922.75
2023-02-13T02:57:17.515Z,78934.31
2023-02-13T03:00:09.886Z,78942.03
2023-02-13T03:02:55.609Z,78930.47
2023-02-13T03:05:52.246Z,78926.63
2023-02-13T03:08:39.203Z,78936.25
2023-02-13T03:11:25.519Z,78942.03
2023-02-13T03:13:53.705Z,78945.91
2023-02-13T03:16:42.882Z,78945.91
2023-02-13T03:20:01.020Z,78943.97
2023-02-13T03:22:36.674Z,78953.59
2023-02-13T03:25:09.345Z,78972.91
2023-02-13T03:28:31.260Z,79005.69
2023-02-13T03:31:21.393Z,79013.38
2023-02-13T03:34:05.855Z,79019.19
2023-02-13T03:37:05.455Z,79028.81
2023-02-13T03:39:34.914Z,79019.19
2023-02-13T03:42:08.920Z,79019.19
2023-02-13T03:44:46.981Z,79007.59
2023-02-13T03:47:14.769Z,78996.03
2023-02-13T03:50:10.509Z,78999.88
2023-02-13T03:52:52.437Z,79011.47
2023-02-13T03:55:45.247Z,79011.47
2023-02-13T03:58:33.503Z,79011.47
2023-02-13T04:01:05.196Z,79007.59
2023-02-13T04:03:47.147Z,78999.88
2023-02-13T04:06:20.095Z,78988.31
2023-02-13T04:08:46.863Z,78974.81
2023-02-13T04:11:29.434Z,78967.09
2023-02-13T04:14:01.276Z,78963.25
2023-02-13T04:16:33.248Z,78955.53
2023-02-13T04:19:01.385Z,78965.19
2023-02-13T04:21:28.241Z,78963.25
2023-02-13T04:23:54.821Z,78963.25
2023-02-13T04:26:23.766Z,78972.91
2023-02-13T04:28:50.388Z,78980.59
2023-02-13T04:31:17.120Z,78984.47
2023-02-13T04:33:43.876Z,78982.53
2023-02-13T04:36:10.612Z,78980.59
2023-02-13T04:38:37.231Z,78992.19
2023-02-13T04:41:03.832Z,78999.88
2023-02-13T04:43:30.663Z,79011.47
2023-02-13T04:45:57.283Z,79015.31
2023-02-13T04:48:23.901Z,79009.53
2023-02-13T04:50:50.583Z,79017.25
2023-02-13T04:53:17.148Z,79011.47
2023-02-13T04:55:43.818Z,79011.47
2023-02-13T04:58:10.415Z,79030.75
2023-02-13T05:00:37.755Z,79015.31
2023-02-13T05:03:06.338Z,79007.59
2023-02-13T05:05:33.396Z,79007.59
2023-02-13T05:08:00.104Z,78999.88
2023-02-13T05:10:27.081Z,79003.75
2023-02-13T05:12:53.996Z,78992.19
2023-02-13T05:15:21.142Z,78988.31
2023-02-13T05:17:47.698Z,78982.53
2023-02-13T05:20:14.641Z,78976.75
2023-02-13T05:23:04.499Z,78992.19
2023-02-13T05:25:31.599Z,78980.59
2023-02-13T05:27:58.238Z,78967.09
2023-02-13T05:30:24.939Z,78976.75
2023-02-13T05:32:52.045Z,78984.47
2023-02-13T05:35:19.637Z,78984.47
2023-02-13T05:37:46.194Z,78980.59
2023-02-13T05:40:13.611Z,78982.53
2023-02-13T05:42:41.460Z,78986.38
2023-02-13T05:45:10.245Z,78986.38
2023-02-13T05:47:40.437Z,79005.69
2023-02-13T05:50:07.862Z,78999.88
2023-02-13T05:52:34.522Z,78992.19
2023-02-13T05:55:01.051Z,78988.31
2023-02-13T05:57:27.599Z,78986.38
2023-02-13T05:59:54.199Z,78980.59
2023-02-13T06:02:20.778Z,78982.53
2023-02-13T06:04:47.465Z,78978.69
2023-02-13T06:07:14.316Z,78976.75
2023-02-13T06:09:40.978Z,78970.97
2023-02-13T06:12:07.628Z,78980.59
2023-02-13T06:14:34.378Z,78969.03
2023-02-13T06:17:01.649Z,78976.75
2023-02-13T06:19:28.308Z,78970.97
2023-02-13T06:21:54.859Z,78970.97
2023-02-13T06:24:21.602Z,78965.19
2023-02-13T06:26:48.172Z,78957.47
2023-02-13T06:29:14.964Z,78961.31
2023-02-13T06:31:41.574Z,78953.59
2023-02-13T06:34:08.187Z,78953.59
2023-02-13T06:36:34.989Z,78961.31
2023-02-13T06:39:01.590Z,78963.25
2023-02-13T06:41:28.324Z,78965.19
2023-02-13T06:43:54.982Z,78967.09
2023-02-13T06:46:21.573Z,78967.09
2023-02-13T06:48:48.189Z,78974.81
2023-02-13T06:51:14.792Z,78969.03
2023-02-13T06:53:41.396Z,78965.19
2023-02-13T06:56:08.030Z,78957.47
2023-02-13T06:58:34.862Z,78947.81
2023-02-13T07:01:01.504Z,78947.81
2023-02-13T07:03:28.223Z,78942.03
2023-02-13T07:05:54.861Z,78942.03
2023-02-13T07:08:21.428Z,78934.31
2023-02-13T07:10:48.165Z,78928.53
2023-02-13T07:13:14.801Z,78926.63
2023-02-13T07:15:41.428Z,78918.91
2023-02-13T07:18:08.191Z,78922.75
2023-02-13T07:20:35.148Z,78918.91
2023-02-13T07:23:03.641Z,78918.91
2023-02-13T07:25:30.837Z,78911.19
2023-02-13T07:28:07.134Z,78911.19
2023-02-13T07:30:35.011Z,78907.31
2023-02-13T07:33:03.088Z,78916.97
2023-02-13T07:35:29.800Z,78924.69
2023-02-13T07:37:56.697Z,78920.81
2023-02-13T07:40:23.402Z,78920.81
2023-02-13T07:42:50.427Z,78920.81
2023-02-13T07:45:17.179Z,78920.81
2023-02-13T07:47:43.884Z,78915.03
2023-02-13T07:50:11.424Z,78913.13
2023-02-13T07:52:38.198Z,78913.13
2023-02-13T07:55:05.830Z,78895.75
2023-02-13T07:57:33.527Z,78891.91
2023-02-13T08:00:00.181Z,78891.91
2023-02-13T08:02:26.875Z,78895.75
2023-02-13T08:04:53.441Z,78891.91
2023-02-13T08:07:20.204Z,78888.03
2023-02-13T08:10:05.766Z,78891.91
2023-02-13T08:12:34.916Z,78888.03
2023-02-13T08:15:01.486Z,78889.97
2023-02-13T08:17:28.146Z,78880.34
2023-02-13T08:19:55.104Z,78872.63
2023-02-13T08:22:21.896Z,78872.63
2023-02-13T08:24:48.441Z,78866.84
2023-02-13T08:27:16.109Z,78868.75
2023-02-13T08:29:42.730Z,78853.34
2023-02-13T08:32:09.481Z,78861.06
2023-02-13T08:34:36.513Z,78853.34
2023-02-13T08:37:03.735Z,78841.78
2023-02-13T08:39:30.431Z,78834.06
2023-02-13T08:41:57.032Z,78834.06
2023-02-13T08:44:23.732Z,78826.34
2023-02-13T08:46:50.296Z,78832.13
2023-02-13T08:49:17.128Z,78828.28
2023-02-13T08:51:43.833Z,78830.19
2023-02-13T08:54:10.474Z,78826.34
2023-02-13T08:56:37.094Z,78818.63
2023-02-13T08:59:03.769Z,78807.06
2023-02-13T09:01:30.412Z,78803.19
2023-02-13T09:03:57.034Z,78795.50
2023-02-13T09:06:26.192Z,78795.50
2023-02-13T09:08:53.423Z,78795.50
2023-02-13T09:11:23.274Z,78780.06
2023-02-13T09:13:53.354Z,78764.63
2023-02-13T09:16:20.910Z,78749.22
2023-02-13T09:18:48.800Z,78743.44
2023-02-13T09:21:16.125Z,78737.63
2023-02-13T09:23:42.784Z,78728.00
2023-02-13T09:26:14.422Z,78722.22
2023-02-13T09:28:41.739Z,78699.06
2023-02-13T09:31:17.493Z,78691.38
2023-02-13T09:33:45.613Z,78679.78
2023-02-13T09:36:16.053Z,78672.09
2023-02-13T09:38:44.292Z,78652.81
2023-02-13T09:41:23.148Z,78654.72
2023-02-13T09:43:59.100Z,78641.22
2023-02-13T09:46:37.440Z,78635.44
2023-02-13T09:49:17.525Z,78616.16
2023-02-13T09:51:50.194Z,78606.53
2023-02-13T09:54:20.456Z,78608.44
2023-02-13T09:57:07.229Z,78598.81
2023-02-13T10:00:02.080Z,78587.25
2023-02-13T10:02:48.437Z,78625.81
2023-02-13T10:05:33.433Z,78625.81
2023-02-13T10:08:25.463Z,78633.53
2023-02-13T10:11:04.095Z,78623.88
2023-02-13T10:13:55.073Z,78621.94
2023-02-13T10:16:38.050Z,78614.22
2023-02-13T10:19:32.705Z,78602.66
2023-02-13T10:22:05.399Z,78600.75
2023-02-13T10:24:52.977Z,78594.94
2023-02-13T10:27:25.053Z,78589.16
2023-02-13T10:30:06.688Z,78606.53
2023-02-13T10:32:43.949Z,78593.03
2023-02-13T10:35:20.420Z,78571.81
2023-02-13T10:37:53.899Z,78560.25
2023-02-13T10:40:20.627Z,78546.75
2023-02-13T10:43:03.388Z,78533.25
2023-02-13T10:46:24.424Z,78502.41
2023-02-13T10:49:08.118Z,78473.47
2023-02-13T10:52:01.049Z,78452.28
2023-02-13T10:54:56.588Z,78452.28
2023-02-13T10:57:54.333Z,78459.97
2023-02-13T11:00:25.387Z,78459.97
2023-02-13T11:02:52.412Z,78442.63
2023-02-13T11:05:30.489Z,78438.78
2023-02-13T11:07:58.930Z,78421.41
2023-02-13T11:10:26.860Z,78409.84
2023-02-13T11:12:54.027Z,78411.78
2023-02-13T11:15:22.807Z,78402.16
2023-02-13T11:17:50.701Z,78421.41
2023-02-13T11:20:26.457Z,78444.56
2023-02-13T11:22:53.508Z,78433.00
2023-02-13T11:25:26.210Z,78425.28
2023-02-13T11:28:08.477Z,78429.13
2023-02-13T11:30:37.501Z,78417.56
2023-02-13T11:33:16.291Z,78386.72
2023-02-13T11:35:44.523Z,78394.44
2023-02-13T11:38:29.000Z,78369.38
2023-02-13T11:41:18.805Z,78352.00
2023-02-13T11:43:50.589Z,78361.66
2023-02-13T11:46:24.250Z,78353.94
2023-02-13T11:49:03.064Z,78367.44
2023-02-13T11:51:40.480Z,78350.09
2023-02-13T11:54:22.014Z,78332.72
2023-02-13T11:57:03.985Z,78309.59
2023-02-13T11:59:40.020Z,78299.97
2023-02-13T12:02:17.809Z,78292.25
2023-02-13T12:04:45.121Z,78292.25
2023-02-13T12:07:23.879Z,78282.59
2023-02-13T12:09:54.999Z,78282.59
2023-02-13T12:12:40.701Z,78325.03
2023-02-13T12:15:20.650Z,78309.59
2023-02-13T12:17:53.137Z,78321.16
2023-02-13T12:20:19.872Z,78301.88
2023-02-13T12:23:12.386Z,78301.88
2023-02-13T12:25:57.802Z,78305.75
2023-02-13T12:29:12.608Z,78286.47
2023-02-13T12:31:57.946Z,78301.88
2023-02-13T12:34:42.960Z,78305.75
2023-02-13T12:37:28.367Z,78263.31
2023-02-13T12:40:15.684Z,78217.06
2023-02-13T12:42:56.579Z,78174.63
2023-02-13T12:45:32.148Z,78151.50
2023-02-13T12:48:26.941Z,78109.09
2023-02-13T12:51:18.349Z,78078.25
2023-02-13T12:54:09.383Z,78089.81
2023-02-13T12:56:41.980Z,78099.44
2023-02-13T12:59:35.967Z,78074.38
2023-02-13T13:02:30.600Z,78031.97
2023-02-13T13:05:24.603Z,77989.56
2023-02-13T13:08:00.731Z,78026.19
2023-02-13T13:10:35.957Z,78039.69
2023-02-13T13:13:12.869Z,78024.25
2023-02-13T13:15:39.421Z,77993.41
2023-02-13T13:18:25.502Z,77993.41
2023-02-13T13:21:11.888Z,78039.69
2023-02-13T13:23:48.271Z,78074.38
2023-02-13T13:26:25.040Z,78085.97
2023-02-13T13:28:56.539Z,78066.69
2023-02-13T13:31:26.351Z,78064.75
2023-02-13T13:33:58.407Z,78043.53
2023-02-13T13:36:46.796Z,78047.41
2023-02-13T13:39:26.678Z,78085.97
2023-02-13T13:41:54.877Z,78051.25
2023-02-13T13:44:43.159Z,78058.97
2023-02-13T13:47:21.685Z,78062.81
2023-02-13T13:49:57.292Z,78082.09
2023-02-13T13:52:23.876Z,78058.97
2023-02-13T13:54:52.589Z,78060.91
2023-02-13T13:57:24.659Z,78078.25
2023-02-13T14:00:12.088Z,78066.69
2023-02-13T14:02:50.698Z,78078.25
2023-02-13T14:05:20.136Z,78112.94
2023-02-13T14:07:58.390Z,78089.81
2023-02-13T14:10:27.839Z,78087.88
2023-02-13T14:12:57.233Z,78107.16
2023-02-13T14:15:47.438Z,78120.66
2023-02-13T14:18:14.058Z,78124.50
2023-02-13T14:20:52.321Z,78114.88
2023-02-13T14:23:24.968Z,78116.81
2023-02-13T14:26:16.044Z,78118.72
2023-02-13T14:28:51.525Z,78120.66
2023-02-13T14:31:43.708Z,78138.00
2023-02-13T14:34:16.961Z,78139.94
2023-02-13T14:36:47.042Z,78151.50
2023-02-13T14:39:16.339Z,78163.06
2023-02-13T14:41:57.731Z,78159.22
2023-02-13T14:44:27.258Z,78155.34
2023-02-13T14:46:56.217Z,78161.16
2023-02-13T14:49:30.293Z,78174.63
2023-02-13T14:52:01.935Z,78176.56
2023-02-13T14:54:45.501Z,78174.63
2023-02-13T14:57:31.834Z,78172.72
2023-02-13T15:00:02.072Z,78190.06
2023-02-13T15:02:35.418Z,78197.78
2023-02-13T15:05:06.308Z,78197.78
2023-02-13T15:07:44.351Z,78201.63
2023-02-13T15:10:32.858Z,78201.63
2023-02-13T15:13:01.304Z,78217.06
2023-02-13T15:15:37.118Z,78222.84
2023-02-13T15:18:10.272Z,78211.28
2023-02-13T15:20:39.881Z,78217.06
2023-02-13T15:23:07.512Z,78228.63
2023-02-13T15:25:36.949Z,78224.78
2023-02-13T15:28:06.629Z,78236.34
2023-02-13T15:30:38.745Z,78244.03
2023-02-13T15:33:11.346Z,78244.03
2023-02-13T15:35:38.289Z,78247.91
2023-02-13T15:38:25.523Z,78251.75
2023-02-13T15:40:55.061Z,78255.63
2023-02-13T15:43:27.855Z,78255.63
2023-02-13T15:45:59.155Z,78255.63
2023-02-13T15:48:25.784Z,78255.63
2023-02-13T15:50:53.239Z,78263.31
2023-02-13T15:53:19.873Z,78271.03
2023-02-13T15:56:00.081Z,78271.03
2023-02-13T15:58:31.309Z,78278.75
2023-02-13T16:01:04.321Z,78284.53
2023-02-13T16:03:33.024Z,78288.38
2023-02-13T16:06:00.306Z,78290.31
2023-02-13T16:08:31.580Z,78290.31
2023-02-13T16:11:16.752Z,78286.47
2023-02-13T16:14:07.756Z,78292.25
2023-02-13T16:17:12.765Z,78292.25
2023-02-13T16:19:52.012Z,78298.03
2023-02-13T16:22:31.903Z,78307.66
2023-02-13T16:25:16.618Z,78298.03
2023-02-13T16:27:47.394Z,78309.59
2023-02-13T16:30:25.882Z,78317.31
2023-02-13T16:33:08.367Z,78317.31
2023-02-13T16:35:38.391Z,78317.31
2023-02-13T16:38:21.895Z,78321.16
2023-02-13T16:40:48.526Z,78325.03
2023-02-13T16:43:40.110Z,78325.03
2023-02-13T16:46:21.886Z,78323.09
2023-02-13T16:48:59.401Z,78321.16
2023-02-13T16:51:25.931Z,78321.16
2023-02-13T16:54:12.773Z,78323.09
2023-02-13T16:56:49.603Z,78332.72
2023-02-13T16:59:31.498Z,78336.59
2023-02-13T17:02:25.655Z,78340.44
2023-02-13T17:05:13.505Z,78340.44
2023-02-13T17:07:51.161Z,78344.31
2023-02-13T17:10:36.647Z,78342.38
2023-02-13T17:13:19.628Z,78350.09
2023-02-13T17:15:47.914Z,78348.16
2023-02-13T17:18:14.602Z,78342.38
2023-02-13T17:20:43.414Z,78350.09
2023-02-13T17:23:17.688Z,78342.38
2023-02-13T17:25:49.215Z,78348.16
2023-02-13T17:28:19.171Z,78340.44
2023-02-13T17:30:46.842Z,78340.44
2023-02-13T17:33:23.933Z,78338.53
2023-02-13T17:35:51.198Z,78340.44
2023-02-13T17:38:18.194Z,78332.72
2023-02-13T17:40:45.638Z,78325.03
2023-02-13T17:43:13.873Z,78328.88
2023-02-13T17:45:40.670Z,78330.81
2023-02-13T17:48:07.340Z,78336.59
2023-02-13T17:50:34.845Z,78342.38
2023-02-13T17:53:07.570Z,78342.38
2023-02-13T17:55:35.667Z,78342.38
2023-02-13T17:58:02.985Z,78344.31
2023-02-13T18:00:32.072Z,78348.16
2023-02-13T18:03:00.481Z,78350.09
2023-02-13T18:05:27.912Z,78348.16
2023-02-13T18:07:54.733Z,78348.16
2023-02-13T18:10:24.340Z,78352.00
2023-02-13T18:12:52.323Z,78344.31
2023-02-13T18:15:19.451Z,78344.31
2023-02-13T18:17:46.488Z,78344.31
2023-02-13T18:20:17.302Z,78348.16
2023-02-13T18:22:44.789Z,78352.00
2023-02-13T18:25:11.526Z,78355.88
2023-02-13T18:27:38.210Z,78355.88
2023-02-13T18:30:07.436Z,78352.00
2023-02-13T18:32:34.401Z,78348.16
2023-02-13T18:35:02.709Z,78350.09
2023-02-13T18:37:30.116Z,78348.16
2023-02-13T18:39:57.333Z,78352.00
2023-02-13T18:42:24.294Z,78363.59
2023-02-13T18:44:51.067Z,78361.66
2023-02-13T18:47:18.339Z,78367.44
2023-02-13T18:49:47.855Z,78371.28
2023-02-13T18:52:14.624Z,78375.16
2023-02-13T18:54:44.316Z,78369.38
2023-02-13T18:57:10.992Z,78377.06
2023-02-13T18:59:37.686Z,78371.28
2023-02-13T19:02:04.458Z,78379.00
2023-02-13T19:04:31.527Z,78379.00
2023-02-13T19:06:58.210Z,78380.94
2023-02-13T19:09:24.834Z,78379.00
2023-02-13T19:11:51.782Z,78386.72
2023-02-13T19:14:18.879Z,78375.16
2023-02-13T19:16:45.459Z,78382.88
2023-02-13T19:19:12.124Z,78386.72
2023-02-13T19:21:39.451Z,78382.88
2023-02-13T19:24:09.216Z,78386.72
2023-02-13T19:26:36.524Z,78388.66
2023-02-13T19:29:03.813Z,78394.44
2023-02-13T19:31:32.693Z,78390.56
2023-02-13T19:34:00.606Z,78396.34
2023-02-13T19:36:29.018Z,78394.44
2023-02-13T19:38:57.929Z,78398.28
2023-02-13T19:41:24.537Z,78404.06
2023-02-13T19:43:53.271Z,78404.06
2023-02-13T19:46:26.104Z,78404.06
2023-02-13T19:48:53.217Z,78402.16
2023-02-13T19:51:22.841Z,78406.00
2023-02-13T19:53:49.527Z,78398.28
2023-02-13T19:56:16.120Z,78400.22
2023-02-13T19:58:43.260Z,78396.34
2023-02-13T20:01:18.520Z,78398.28
2023-02-13T20:03:45.160Z,78402.16
2023-02-13T20:06:15.495Z,78402.16
2023-02-13T20:08:43.087Z,78398.28
2023-02-13T20:11:11.898Z,78398.28
2023-02-13T20:13:39.264Z,78396.34
2023-02-13T20:16:12.119Z,78402.16
2023-02-13T20:18:39.406Z,78402.16
2023-02-13T20:21:06.716Z,78400.22
2023-02-13T20:23:33.615Z,78394.44
2023-02-13T20:26:13.752Z,78400.22
2023-02-13T20:28:41.539Z,78402.16
2023-02-13T20:31:10.994Z,78402.16
2023-02-13T20:33:41.248Z,78413.72
2023-02-13T20:36:25.284Z,78413.72
2023-02-13T20:38:58.505Z,78417.56
2023-02-13T20:41:28.216Z,78417.56
2023-02-13T20:43:58.695Z,78417.56
2023-02-13T20:46:25.324Z,78421.41
2023-02-13T20:48:52.117Z,78427.22
2023-02-13T20:51:18.878Z,78425.28
2023-02-13T20:53:46.767Z,78429.13
2023-02-13T20:56:22.113Z,78419.50
2023-02-13T20:58:50.771Z,78425.28
2023-02-13T21:01:23.391Z,78434.91
2023-02-13T21:03:54.601Z,78436.84
2023-02-13T21:06:24.260Z,78440.69
2023-02-13T21:08:51.135Z,78448.41
2023-02-13T21:11:18.619Z,78442.63
2023-02-13T21:13:45.825Z,78448.41
2023-02-13T21:16:15.863Z,78448.41
2023-02-13T21:18:43.511Z,78444.56
2023-02-13T21:21:11.713Z,78448.41
2023-02-13T21:23:38.485Z,78456.13
2023-02-13T21:26:08.337Z,78461.91
2023-02-13T21:28:35.184Z,78467.69
2023-02-13T21:31:16.586Z,78481.19
2023-02-13T21:33:43.667Z,78483.13
2023-02-13T21:36:12.026Z,78490.84
2023-02-13T21:38:40.193Z,78475.41
2023-02-13T21:41:14.077Z,78479.25
2023-02-13T21:43:42.249Z,78475.41
2023-02-13T21:46:11.684Z,78475.41
2023-02-13T21:48:39.517Z,78483.13
2023-02-13T21:51:19.486Z,78486.97
2023-02-13T21:53:48.713Z,78490.84
2023-02-13T21:56:18.406Z,78504.34
2023-02-13T21:58:46.186Z,78519.75
2023-02-13T22:01:25.819Z,78527.47
2023-02-13T22:04:00.157Z,78533.25
2023-02-13T22:06:31.855Z,78531.31
2023-02-13T22:09:03.757Z,78533.25
2023-02-13T22:11:30.604Z,78537.09
2023-02-13T22:14:01.642Z,78540.97
2023-02-13T22:16:34.777Z,78546.75
2023-02-13T22:19:02.643Z,78554.47
2023-02-13T22:21:31.573Z,78567.97
2023-02-13T22:23:58.303Z,78579.53
2023-02-13T22:26:28.367Z,78583.38
2023-02-13T22:28:58.887Z,78589.16
2023-02-13T22:31:26.122Z,78591.09
2023-02-13T22:34:03.252Z,78598.81
2023-02-13T22:36:35.445Z,78604.59
2023-02-13T22:39:02.137Z,78596.88
2023-02-13T22:41:28.940Z,78593.03
2023-02-13T22:43:55.729Z,78581.47
2023-02-13T22:46:25.208Z,78587.25
2023-02-13T22:48:52.513Z,78583.38
2023-02-13T22:51:28.579Z,78598.81
2023-02-13T22:53:56.630Z,78594.94
2023-02-13T22:56:25.229Z,78600.75
2023-02-13T22:58:52.433Z,78594.94
2023-02-13T23:01:21.236Z,78598.81
2023-02-13T23:03:48.037Z,78602.66
2023-02-13T23:06:15.794Z,78600.75
2023-02-13T23:08:43.527Z,78602.66
2023-02-13T23:11:34.140Z,78606.53
2023-02-13T23:14:00.882Z,78610.38
2023-02-13T23:16:27.811Z,78612.31
2023-02-13T23:18:56.202Z,78610.38
2023-02-13T23:21:24.142Z,78606.53
2023-02-13T23:23:51.010Z,78606.53
2023-02-13T23:26:18.117Z,78596.88
2023-02-13T23:28:44.687Z,78591.09
2023-02-13T23:31:11.495Z,78591.09
2023-02-13T23:33:38.224Z,78593.03
2023-02-13T23:36:05.222Z,78587.25
2023-02-13T23:38:31.782Z,78587.25
2023-02-13T23:41:06.380Z,78585.31
2023-02-13T23:43:33.059Z,78589.16
2023-02-13T23:45:59.710Z,78587.25
2023-02-13T23:48:28.719Z,78587.25
2023-02-13T23:50:55.386Z,78581.47
2023-02-13T23:53:21.975Z,78575.66
2023-02-13T23:55:49.461Z,78575.66
2023-02-13T23:58:16.210Z,78579.53
